createdAt,value
2023-05-05T05:00:44.456Z,99940.03
2023-05-05T05:03:11.949Z,99950.59
2023-05-05T05:05:38.928Z,99945.06
2023-05-05T05:08:06.670Z,99948.22
2023-05-05T05:10:33.713Z,99937.91
2023-05-05T05:13:02.269Z,99954.13
2023-05-05T05:15:29.032Z,99961.66
2023-05-05T05:17:56.305Z,99964.59
2023-05-05T05:20:24.397Z,99965.03
2023-05-05T05:22:51.917Z,99970.06
2023-05-05T05:25:20.623Z,99969.72
2023-05-05T05:28:01.974Z,99971.47
2023-05-05T05:30:37.050Z,99973.16
2023-05-05T05:33:06.565Z,99982.00
2023-05-05T05:35:33.182Z,99983.63
2023-05-05T05:38:00.904Z,99975.50
2023-05-05T05:40:27.508Z,99983.28
2023-05-05T05:42:55.676Z,99978.78
2023-05-05T05:45:27.085Z,99983.19
2023-05-05T05:47:54.402Z,99972.81
2023-05-05T05:50:21.625Z,99981.63
2023-05-05T05:52:48.942Z,99996.13
2023-05-05T05:55:15.724Z,99994.25
2023-05-05T05:57:43.255Z,100006.75
2023-05-05T06:00:11.634Z,99997.69
2023-05-05T06:02:38.885Z,100001.84
2023-05-05T06:05:09.613Z,99995.81
2023-05-05T06:07:37.343Z,100001.84
2023-05-05T06:10:25.159Z,99998.91
2023-05-05T06:12:54.189Z,99995.00
2023-05-05T06:15:20.978Z,99987.50
2023-05-05T06:20:29.478Z,99982.31
2023-05-05T06:22:56.741Z,99973.94
2023-05-05T06:25:24.146Z,99983.41
2023-05-05T06:27:52.255Z,99995.25
2023-05-05T06:30:18.795Z,99997.19
2023-05-05T06:32:46.119Z,100002.75
2023-05-05T06:35:12.675Z,100016.06
2023-05-05T06:37:40.135Z,100027.16
2023-05-05T06:40:07.977Z,100028.72
2023-05-05T06:42:36.252Z,100036.38
2023-05-05T06:45:07.275Z,100037.34
2023-05-05T06:47:34.855Z,100033.09
2023-05-05T06:50:01.564Z,100036.13
2023-05-05T06:52:28.610Z,100049.16
2023-05-05T06:54:55.087Z,100052.44
2023-05-05T06:57:22.289Z,100049.78
2023-05-05T06:59:48.860Z,100045.78
2023-05-05T07:02:16.115Z,100050.00
2023-05-05T07:04:43.991Z,100051.75
2023-05-05T07:07:11.196Z,100050.59
2023-05-05T07:09:37.774Z,100050.13
2023-05-05T07:12:05.122Z,100050.84
2023-05-05T07:14:31.697Z,100057.66
2023-05-05T07:16:58.983Z,100057.00
2023-05-05T07:19:25.628Z,100065.97
2023-05-05T07:21:52.815Z,100055.16
2023-05-05T07:24:19.437Z,100052.47
2023-05-05T07:26:46.835Z,100063.63
2023-05-05T07:29:13.510Z,100057.09
2023-05-05T07:31:40.892Z,100063.81
2023-05-05T07:34:07.571Z,100063.53
2023-05-05T07:36:34.852Z,100064.97
2023-05-05T07:39:01.661Z,100075.88
2023-05-05T07:41:28.937Z,100076.66
2023-05-05T07:43:55.562Z,100070.91
2023-05-05T07:46:22.719Z,100073.38
2023-05-05T07:48:49.329Z,100079.72
2023-05-05T07:51:16.554Z,100079.31
2023-05-05T07:53:43.280Z,100080.88
2023-05-05T07:56:10.820Z,100082.75
2023-05-05T07:58:37.364Z,100086.09
2023-05-05T08:01:06.777Z,100088.19
2023-05-05T08:03:33.534Z,100090.94
2023-05-05T08:06:08.869Z,100082.19
2023-05-05T08:08:35.678Z,100082.66
2023-05-05T08:11:03.241Z,100086.75
2023-05-05T08:13:32.602Z,100090.22
2023-05-05T08:15:59.948Z,100086.34
2023-05-05T08:18:26.993Z,100089.34
2023-05-05T08:20:54.900Z,100085.56
2023-05-05T08:23:21.800Z,100091.41
2023-05-05T08:25:50.159Z,100091.75
2023-05-05T08:28:16.740Z,100087.06
2023-05-05T08:30:44.321Z,100088.91
2023-05-05T08:33:11.092Z,100093.31
2023-05-05T08:35:38.401Z,100086.00
2023-05-05T08:38:05.010Z,100093.66
2023-05-05T08:40:38.406Z,100095.19
2023-05-05T08:43:05.573Z,100092.75
2023-05-05T08:48:35.265Z,100089.31
2023-05-05T08:51:05.665Z,100090.69
2023-05-05T08:53:47.881Z,100082.97
2023-05-05T08:56:18.413Z,100085.31
2023-05-05T08:58:46.513Z,100080.00
2023-05-05T09:01:14.686Z,100074.91
2023-05-05T09:03:41.397Z,100073.25
2023-05-05T09:06:09.891Z,100081.31
2023-05-05T09:08:40.105Z,100087.59
2023-05-05T09:11:07.402Z,100088.69
2023-05-05T09:13:34.127Z,100098.28
2023-05-05T09:16:01.448Z,100099.84
2023-05-05T09:18:44.612Z,100087.34
2023-05-05T09:21:28.026Z,100097.38
2023-05-05T09:24:11.734Z,100093.97
2023-05-05T09:26:42.290Z,100090.75
2023-05-05T09:29:09.412Z,100097.88
2023-05-05T09:31:37.920Z,100101.53
2023-05-05T09:34:15.919Z,100101.69
2023-05-05T09:36:49.630Z,100096.47
2023-05-05T09:39:20.005Z,100097.00
2023-05-05T09:41:47.556Z,100092.78
2023-05-05T09:44:16.093Z,100093.53
2023-05-05T09:46:53.459Z,100098.63
2023-05-05T09:49:26.808Z,100089.59
2023-05-05T09:51:55.626Z,100094.22
2023-05-05T09:54:27.331Z,100095.75
2023-05-05T09:56:55.738Z,100087.50
2023-05-05T09:59:23.120Z,100084.41
2023-05-05T10:01:51.604Z,100086.69
2023-05-05T10:06:52.441Z,100073.16
2023-05-05T10:09:19.130Z,100084.72
2023-05-05T10:11:47.873Z,100078.09
2023-05-05T10:14:15.900Z,100077.63
2023-05-05T10:16:51.083Z,100081.63
2023-05-05T10:19:22.970Z,100083.47
2023-05-05T10:21:59.817Z,100078.72
2023-05-05T10:24:35.836Z,100076.50
2023-05-05T10:27:05.063Z,100069.44
2023-05-05T10:30:00.237Z,100071.94
2023-05-05T10:32:56.394Z,100069.00
2023-05-05T10:35:24.858Z,100067.97
2023-05-05T10:37:52.670Z,100071.13
2023-05-05T10:40:22.410Z,100070.28
2023-05-05T10:42:50.933Z,100066.38
2023-05-05T10:45:18.264Z,100061.50
2023-05-05T10:47:45.019Z,100054.38
2023-05-05T10:50:21.863Z,100062.13
2023-05-05T10:53:11.159Z,100066.88
2023-05-05T10:55:48.641Z,100059.31
2023-05-05T10:58:46.894Z,100066.69
2023-05-05T11:01:33.146Z,100072.56
2023-05-05T11:04:18.758Z,100065.22
2023-05-05T11:07:14.773Z,100062.13
2023-05-05T11:10:15.869Z,100056.91
2023-05-05T11:12:52.042Z,100061.06
2023-05-05T11:15:29.236Z,100047.13
2023-05-05T11:18:40.112Z,100041.59
2023-05-05T11:21:20.657Z,100043.72
2023-05-05T11:23:56.770Z,100035.50
2023-05-05T11:26:50.351Z,100039.06
2023-05-05T11:29:17.927Z,100030.59
2023-05-05T11:31:47.990Z,100038.22
2023-05-05T11:34:29.375Z,100027.31
2023-05-05T11:36:59.063Z,100015.66
2023-05-05T11:39:33.536Z,100016.22
2023-05-05T11:42:28.752Z,100017.38
2023-05-05T11:44:56.356Z,100008.59
2023-05-05T11:47:23.115Z,100000.78
2023-05-05T11:49:50.825Z,100002.31
2023-05-05T11:55:05.757Z,100010.72
2023-05-05T11:57:32.371Z,100005.91
2023-05-05T12:00:02.537Z,100013.25
2023-05-05T12:02:31.831Z,100008.72
2023-05-05T12:05:00.198Z,100014.81
2023-05-05T12:07:33.395Z,100004.59
2023-05-05T12:10:01.108Z,99995.69
2023-05-05T12:12:38.609Z,99993.16
2023-05-05T12:15:06.969Z,99990.56
2023-05-05T12:17:44.908Z,99991.25
2023-05-05T12:20:13.424Z,99987.19
2023-05-05T12:22:40.571Z,99982.06
2023-05-05T12:25:09.049Z,99980.66
2023-05-05T12:27:35.805Z,99978.78
2023-05-05T12:30:14.483Z,99983.44
2023-05-05T12:32:41.493Z,99978.66
2023-05-05T12:35:10.174Z,99975.72
2023-05-05T12:37:37.099Z,99977.25
2023-05-05T12:40:06.608Z,99982.38
2023-05-05T12:42:38.894Z,99984.06
2023-05-05T12:45:08.170Z,99978.59
2023-05-05T12:47:36.704Z,99972.44
2023-05-05T12:50:03.934Z,99971.44
2023-05-05T12:52:46.180Z,99968.38
2023-05-05T12:55:13.215Z,99956.59
2023-05-05T12:58:00.769Z,99950.63
2023-05-05T13:00:29.396Z,99953.38
2023-05-05T13:02:56.853Z,99957.09
2023-05-05T13:05:34.506Z,99950.97
2023-05-05T13:08:01.087Z,99955.75
2023-05-05T13:10:31.220Z,99947.28
2023-05-05T13:12:58.786Z,99947.44
2023-05-05T13:15:26.149Z,99949.31
2023-05-05T13:18:03.102Z,99932.09
2023-05-05T13:20:29.755Z,99939.25
2023-05-05T13:22:57.589Z,99936.28
2023-05-05T13:25:24.251Z,99926.41
2023-05-05T13:27:51.587Z,99922.34
2023-05-05T13:30:18.159Z,99915.34
2023-05-05T13:32:45.480Z,99916.00
2023-05-05T13:35:14.689Z,99915.50
2023-05-05T13:37:44.594Z,99917.38
2023-05-05T13:40:13.266Z,99919.72
2023-05-05T13:42:40.612Z,99917.78
2023-05-05T13:45:07.902Z,99916.22
2023-05-05T13:47:35.015Z,99913.66
2023-05-05T13:50:01.990Z,99911.22
2023-05-05T13:52:31.623Z,99915.59
2023-05-05T13:54:59.728Z,99908.84
2023-05-05T13:57:27.296Z,99907.41
2023-05-05T13:59:53.990Z,99906.50
2023-05-05T14:02:21.313Z,99909.94
2023-05-05T14:04:47.897Z,99910.47
2023-05-05T14:07:15.147Z,99906.19
2023-05-05T14:09:41.742Z,99901.66
2023-05-05T14:12:09.007Z,99904.28
2023-05-05T14:14:36.041Z,99905.50
2023-05-05T14:17:03.388Z,99905.09
2023-05-05T14:19:30.056Z,99901.56
2023-05-05T14:21:57.713Z,99901.03
2023-05-05T14:24:24.394Z,99905.13
2023-05-05T14:26:51.614Z,99914.63
2023-05-05T14:29:18.224Z,99905.38
2023-05-05T14:31:45.560Z,99919.25
2023-05-05T14:34:12.184Z,99931.41
2023-05-05T14:36:39.418Z,99965.84
2023-05-05T14:39:05.983Z,99992.50
2023-05-05T14:41:33.195Z,100033.63
2023-05-05T14:43:59.754Z,100052.66
2023-05-05T14:46:27.686Z,100061.06
2023-05-05T14:48:54.323Z,100062.56
2023-05-05T14:51:21.548Z,100069.69
2023-05-05T14:53:48.210Z,100067.97
2023-05-05T14:56:17.445Z,100076.00
2023-05-05T14:58:44.044Z,100057.25
2023-05-05T15:01:11.351Z,100058.66
2023-05-05T15:03:38.260Z,100053.50
2023-05-05T15:06:05.828Z,100051.53
2023-05-05T15:08:32.432Z,100049.16
2023-05-05T15:10:59.688Z,100041.84
2023-05-05T15:13:26.787Z,100038.94
2023-05-05T15:15:53.767Z,100038.75
2023-05-05T15:18:20.490Z,100042.28
2023-05-05T15:20:47.723Z,100038.84
2023-05-05T15:23:14.565Z,100032.38
2023-05-05T15:25:42.100Z,100030.75
2023-05-05T15:28:08.738Z,100030.66
2023-05-05T15:30:36.054Z,100016.66
2023-05-05T15:33:02.701Z,100020.09
2023-05-05T15:35:29.944Z,100012.38
2023-05-05T15:37:56.568Z,100012.91
2023-05-05T15:40:23.721Z,100008.94
2023-05-05T15:42:51.122Z,100002.25
2023-05-05T15:45:18.108Z,100006.78
2023-05-05T15:47:45.858Z,100007.19
2023-05-05T15:50:12.897Z,100013.13
2023-05-05T15:52:40.253Z,100018.19
2023-05-05T15:55:07.861Z,100029.06
2023-05-05T15:57:35.400Z,100034.03
2023-05-05T16:00:02.371Z,100044.34
2023-05-05T16:02:34.446Z,100046.94
2023-05-05T16:05:01.493Z,100059.78
2023-05-05T16:07:28.075Z,100052.84
2023-05-05T16:09:55.057Z,100049.94
2023-05-05T16:12:22.406Z,100056.59
2023-05-05T16:14:49.111Z,100062.72
2023-05-05T16:17:16.035Z,100064.56
2023-05-05T16:19:42.613Z,100066.38
2023-05-05T16:22:09.828Z,100076.47
2023-05-05T16:24:36.514Z,100077.56
2023-05-05T16:27:04.517Z,100087.19
2023-05-05T16:29:31.184Z,100096.00
2023-05-05T16:31:58.536Z,100105.13
2023-05-05T16:34:25.197Z,100099.75
2023-05-05T16:36:53.666Z,100100.06
2023-05-05T16:39:20.290Z,100102.16
2023-05-05T16:41:47.519Z,100103.59
2023-05-05T16:44:14.431Z,100095.31
2023-05-05T16:46:41.460Z,100089.53
2023-05-05T16:49:08.433Z,100092.34
2023-05-05T16:51:35.382Z,100086.97
2023-05-05T16:54:02.019Z,100086.28
2023-05-05T16:56:29.396Z,100087.34
2023-05-05T16:58:56.118Z,100081.97
2023-05-05T17:01:23.429Z,100077.00
2023-05-05T17:03:50.520Z,100078.91
2023-05-05T17:06:17.873Z,100084.69
2023-05-05T17:08:44.548Z,100092.19
2023-05-05T17:11:14.490Z,100089.69
2023-05-05T17:13:40.936Z,100094.50
2023-05-05T17:16:08.300Z,100092.94
2023-05-05T17:18:34.954Z,100090.19
2023-05-05T17:21:02.194Z,100085.63
2023-05-05T17:23:28.826Z,100096.34
2023-05-05T17:25:56.178Z,100088.09
2023-05-05T17:28:22.876Z,100082.22
2023-05-05T17:30:49.831Z,100095.56
2023-05-05T17:33:20.745Z,100090.56
2023-05-05T17:35:48.499Z,100095.69
2023-05-05T17:38:15.467Z,100093.44
2023-05-05T17:40:42.705Z,100090.88
2023-05-05T17:43:09.358Z,100094.59
2023-05-05T17:45:36.684Z,100105.59
2023-05-05T17:48:03.508Z,100106.63
2023-05-05T17:50:30.828Z,100103.19
2023-05-05T17:52:57.433Z,100092.75
2023-05-05T17:55:24.685Z,100099.59
2023-05-05T17:57:55.772Z,100104.16
2023-05-05T18:00:23.268Z,100105.88
2023-05-05T18:02:49.825Z,100106.06
2023-05-05T18:05:16.877Z,100115.06
2023-05-05T18:07:43.801Z,100104.25
2023-05-05T18:10:11.064Z,100104.16
2023-05-05T18:12:37.853Z,100107.53
2023-05-05T18:15:05.645Z,100103.97
2023-05-05T18:17:32.282Z,100102.25
2023-05-05T18:19:59.461Z,100098.03
2023-05-05T18:22:26.267Z,100101.75
2023-05-05T18:24:59.166Z,100100.97
2023-05-05T18:27:26.915Z,100099.44
2023-05-05T18:29:54.336Z,100096.03
2023-05-05T18:32:21.666Z,100092.59
2023-05-05T18:34:48.957Z,100085.50
2023-05-05T18:37:15.606Z,100087.56
2023-05-05T18:39:44.065Z,100077.22
2023-05-05T18:42:12.685Z,100082.72
2023-05-05T18:44:40.037Z,100084.78
2023-05-05T18:47:06.849Z,100088.59
2023-05-05T18:49:34.203Z,100092.41
2023-05-05T18:52:00.840Z,100098.69
2023-05-05T18:54:28.087Z,100094.28
2023-05-05T18:56:54.750Z,100093.69
2023-05-05T18:59:22.516Z,100083.94
2023-05-05T19:01:49.061Z,100092.22
2023-05-05T19:04:30.148Z,100096.00
2023-05-05T19:06:59.135Z,100096.34
2023-05-05T19:09:26.606Z,100094.53
2023-05-05T19:11:53.260Z,100083.63
2023-05-05T19:14:20.551Z,100090.13
2023-05-05T19:16:47.213Z,100084.22
2023-05-05T19:19:14.714Z,100088.72
2023-05-05T19:21:41.327Z,100084.34
2023-05-05T19:24:09.596Z,100083.56
2023-05-05T19:26:36.343Z,100083.63
2023-05-05T19:29:03.702Z,100085.38
2023-05-05T19:31:31.225Z,100075.59
2023-05-05T19:34:01.505Z,100078.44
2023-05-05T19:36:28.908Z,100073.50
2023-05-05T19:38:56.287Z,100082.66
2023-05-05T19:41:23.151Z,100081.78
2023-05-05T19:43:50.491Z,100081.69
2023-05-05T19:46:17.242Z,100089.72
2023-05-05T19:48:44.649Z,100090.59
2023-05-05T19:51:11.333Z,100095.78
2023-05-05T19:53:40.377Z,100090.53
2023-05-05T19:56:07.376Z,100094.13
2023-05-05T19:58:59.492Z,100094.13
2023-05-05T20:01:27.675Z,100090.75
2023-05-05T20:03:56.620Z,100088.16
2023-05-05T20:06:23.653Z,100085.75
2023-05-05T20:08:51.122Z,100086.94
2023-05-05T20:11:18.192Z,100090.72
2023-05-05T20:13:45.557Z,100090.72
2023-05-05T20:16:12.860Z,100098.97
2023-05-05T20:18:40.533Z,100098.47
2023-05-05T20:21:07.118Z,100091.63
2023-05-05T20:23:34.467Z,100097.03
2023-05-05T20:26:01.632Z,100099.09
2023-05-05T20:28:28.981Z,100096.75
